• Join FlightAware (Why Join?)
  • Login
  • US Flag 
Rudolph Flight #1: Arrived! 
09:49PM EST


 

Airport Tracker/Info


-or-


 

Live Flight TrackerFlight Track Log ✈ N435HP ✈ 01-May-2012 ✈ KIAH - KDTN

Flight Track Log - Related Links

Times and Time Zones

All times are in EDT time to prevent confusion due to time zone crossing. See the N435HP flight status page for this flight to view local times or setup timezone preferences in your user account.

Time Position Orientation Groundspeed Altitude Reporting Facility
EDT Latitude Longitude Course Direction KTS MPH feet Rate Location/Type
07:31AM 29.9561 -95.3431 28° Northeast 98 113 700  Level Houston Center
07:33AM 30.0006 -95.3161 19° North 128 147 2,000 660 Climbing Houston Center
07:34AM 30.0344 -95.3028 25° Northeast 150 173 2,400 360 Climbing Houston Center
07:35AM 30.0767 -95.2803 11° North 165 190 2,800 360 Climbing Houston Center
07:36AM 30.1231 -95.2700 17° North 175 201 3,200 420 Climbing Houston Center
07:37AM 30.1650 -95.2547 14° North 170 196 3,700 420 Climbing Houston Center
07:38AM 30.2239 -95.2375 16° North 174 200 4,200 420 Climbing Houston Center
07:39AM 30.2703 -95.2222 13° North 175 201 4,700 480 Climbing Houston Center
07:40AM 30.3103 -95.2117 18° North 179 206 5,100 480 Climbing Houston Center
07:41AM 30.3692 -95.1897 15° North 184 212 5,700 420 Climbing Houston Center
07:42AM 30.4178 -95.1744 23° Northeast 184 212 6,100 420 Climbing Houston Center
07:43AM 30.4683 -95.1497 27° Northeast 189 217 6,600 420 Climbing Houston Center
07:44AM 30.5150 -95.1222 31° Northeast 189 217 7,000 360 Climbing Houston Center
07:45AM 30.5575 -95.0925 29° Northeast 184 212 7,400 360 Climbing Houston Center
07:46AM 30.6042 -95.0628 31° Northeast 184 212 7,800 420 Climbing Houston Center
07:47AM 30.6467 -95.0328 29° Northeast 179 206 8,300 420 Climbing Houston Center
07:48AM 30.6933 -95.0031 30° Northeast 179 206 8,700 300 Climbing Houston Center
07:49AM 30.7378 -94.9731 30° Northeast 179 206 9,000 120 Climbing Houston Center
07:50AM 30.7867 -94.9408 31° Northeast 185 213 9,000  Level Houston Center
07:51AM 30.8333 -94.9083 28° Northeast 190 219 9,000  Level Houston Center
07:52AM 30.8819 -94.8786 31° Northeast 190 219 9,000  Level Houston Center
07:53AM 30.9286 -94.8461 30° Northeast 190 219 9,000  Level Houston Center
07:54AM 30.9731 -94.8161 29° Northeast 190 219 9,000  Level Houston Center
07:55AM 31.0397 -94.7731 29° Northeast 199 229 9,000  Level Fort Worth Center
07:56AM 31.0869 -94.7428 31° Northeast 194 223 9,000  Level Fort Worth Center
07:57AM 31.1342 -94.7097 30° Northeast 194 223 9,000  Level Fort Worth Center
07:58AM 31.1794 -94.6794 31° Northeast 194 223 9,000  Level Fort Worth Center
07:59AM 31.2331 -94.6414 29° Northeast 194 223 9,000  Level Fort Worth Center
08:00AM 31.2803 -94.6108 29° Northeast 194 223 9,000  Level Fort Worth Center
08:01AM 31.3278 -94.5803 29° Northeast 194 223 9,000  Level Fort Worth Center
08:02AM 31.3750 -94.5494 31° Northeast 194 223 9,000  Level Fort Worth Center
08:03AM 31.4222 -94.5164 29° Northeast 194 223 9,000  Level Fort Worth Center
08:04AM 31.4697 -94.4858 31° Northeast 194 223 9,000  Level Fort Worth Center
08:05AM 31.5169 -94.4525 30° Northeast 194 223 9,000  Level Fort Worth Center
08:06AM 31.5661 -94.4194 30° Northeast 194 223 9,000  Level Fort Worth Center
08:07AM 31.6114 -94.3886 29° Northeast 194 223 9,000  Level Fort Worth Center
08:08AM 31.6586 -94.3578 31° Northeast 194 223 9,000  Level Fort Worth Center
08:09AM 31.7058 -94.3244 36° Northeast 194 223 9,000 -120 Level Fort Worth Center
08:10AM 31.7264 -94.3067 30° Northeast 195 224 8,900 -300 Descending Fort Worth Center
08:11AM 31.7836 -94.2681 28° Northeast 202 232 8,500 -420 Descending Fort Worth Center
08:12AM 31.8331 -94.2369 30° Northeast 205 236 8,100 -420 Descending Fort Worth Center
08:13AM 31.8822 -94.2036 31° Northeast 203 234 7,700 -420 Descending Fort Worth Center
08:14AM 31.9294 -94.1700 28° Northeast 201 231 7,300 -420 Descending Fort Worth Center
08:15AM 31.9789 -94.1389 33° Northeast 202 232 6,900 -480 Descending Fort Worth Center
08:16AM 32.0300 -94.1003 31° Northeast 204 235 6,400 -480 Descending Fort Worth Center
08:17AM 32.0811 -94.0642 29° Northeast 209 241 6,000 -480 Descending Fort Worth Center
08:18AM 32.1325 -94.0303 28° Northeast 213 245 5,500 -540 Descending Fort Worth Center
08:19AM 32.1858 -93.9964 29° Northeast 214 246 5,000 -540 Descending Fort Worth Center
08:20AM 32.2372 -93.9628 13° North 216 249 4,500 -540 Descending Fort Worth Center
08:21AM 32.3033 -93.9453 15° North 216 249 3,900 -540 Descending Fort Worth Center
08:22AM 32.3633 -93.9258 12° North 218 251 3,400 -480 Descending Fort Worth Center
08:23AM 32.4194 -93.9114 15° North 213 245 3,000 -240 Descending Fort Worth Center
08:24AM 32.4711 -93.8947 27° Northeast 197 227 3,000 -300 Level Fort Worth Center
08:25AM 32.5225 -93.8631 47° Northeast 210 242 2,400 -600 Descending Fort Worth Center
08:26AM 32.5586 -93.8172 76° East 200 230 1,900 -840 Descending Fort Worth Center
08:27AM 32.5678 -93.7750 76° East 152 175 900 -1,020 Descending Fort Worth Center